Hlavní strana
METAR-TAF:

METAR-TAF

Letiště :

Sylacauga, Alabama, Spojené státy americké

zeměpisná šířka: 33-10-19N, zeměpisná délka: 086-18-20W, výška: 173 m

Aktuální stav počasí

Zpráva byla vytvořena před 33 minutami, v 10:35 UTC
Bezvětří
Teplota 20°C
Vlhkost vzduchu 100%
Tlak 1021 hPa
Viditelnost: 11.3 km
Polojasno ve výšce 6000 ft

METAR: KSCD 241035Z AUTO 00000KT 7SM SCT060 20/20 A3016 RMK AO2 T01950195

Čas: 06:08 (11:08 UTC)


TAF: chybějící

Stav a předpovědi počasí z více než 4 000 letišť (zprávy METAR a TAF).

Červené a žluté tečky na mapě představují dostupné meteorologické stanice.

Když kurzor umístíte na tečku, zobrazí se název stanice.

Pak kliknutím zobrazíte stav a předpověď počasí.

Chcete-li změnit mapu, kliknutím na zelené tlačítko se znaménkem +mapu přiblížíte, kliknutím na zelené tlačítko se znaménkem – mapu oddálíte a kliknutím na zelené šipky přejdete na sousední mapy.


METAR-TAF: